| time (UTC) | temp F | wind direction | speed MPH | gust MPH | rain 1hr in | rain 24hr in | rain mn in | humidity % | barometer mb |
| 20260504070246 | 42 | 165 | 0.0 | 0.0 | 0.00 | 0.00 | 0.00 | 96 | 1019.1 |
| 20260504060207 | 44 | 170 | 0.0 | 0.0 | 0.00 | 0.00 | 0.00 | 95 | 1019.8 |
| 20260504050635 | 44 | 155 | 0.0 | 0.0 | 0.00 | 0.00 | 0.00 | 96 | 1020.0 |
| 20260504050132 | 44 | 170 | 0.0 | 0.0 | 0.00 | 0.00 | 0.00 | 96 | 1020.1 |
| 20260504045629 | 44 | 170 | 0.0 | 0.0 | 0.00 | 0.00 | 0.00 | 96 | 1020.2 |
| 20260504045124 | 44 | 175 | 0.0 | 0.0 | 0.00 | 0.00 | 0.00 | 96 | 1020.1 |
| 20260504044622 | 43 | 174 | 0.0 | 0.0 | 0.00 | 0.00 | 0.00 | 95 | 1020.1 |
| 20260504044118 | 43 | 174 | 0.0 | 0.0 | 0.00 | 0.00 | 0.00 | 95 | 1020.1 |
| 20260504043615 | 44 | 174 | 0.0 | 0.0 | 0.00 | 0.00 | 0.00 | 95 | 1020.1 |
| 20260504043113 | 44 | 174 | 0.0 | 0.0 | 0.00 | 0.00 | 0.00 | 95 | 1020.0 |
| 20260504042610 | 44 | 174 | 0.0 | 0.0 | 0.00 | 0.00 | 0.00 | 95 | 1020.3 |
| 20260504042107 | 44 | 163 | 0.0 | 0.0 | 0.00 | 0.00 | 0.00 | 94 | 1020.3 |
| 20260504041602 | 44 | 163 | 0.0 | 0.0 | 0.00 | 0.00 | 0.00 | 93 | 1020.4 |
| 20260504041059 | 45 | 163 | 0.0 | 0.0 | 0.00 | 0.00 | 0.00 | 93 | 1020.0 |
| 20260504040556 | 45 | 163 | 0.0 | 0.0 | 0.00 | 0.00 | 0.00 | 93 | 1020.1 |
| 20260504040053 | 45 | 163 | 0.0 | 0.0 | 0.00 | 0.00 | 0.00 | 92 | 1020.2 |
| 20260504035549 | 45 | 163 | 0.0 | 0.0 | 0.00 | 0.00 | 0.00 | 92 | 1020.3 |
| 20260504035046 | 46 | 161 | 0.0 | 0.0 | 0.00 | 0.00 | 0.00 | 91 | 1020.3 |
| 20260504034544 | 45 | 158 | 0.0 | 0.0 | 0.00 | 0.00 | 0.00 | 91 | 1020.2 |
| 20260504034040 | 46 | 172 | 0.0 | 0.0 | 0.00 | 0.00 | 0.00 | 90 | 1020.3 |
| 20260504033538 | 46 | 171 | 0.0 | 0.0 | 0.00 | 0.00 | 0.00 | 90 | 1020.2 |
| 20260504033035 | 46 | 171 | 0.0 | 0.0 | 0.00 | 0.00 | 0.00 | 90 | 1020.2 |
| 20260504032532 | 46 | 172 | 0.0 | 0.0 | 0.00 | 0.00 | 0.00 | 91 | 1020.2 |
| 20260504032029 | 46 | 172 | 0.0 | 0.0 | 0.00 | 0.00 | 0.00 | 88 | 1020.3 |
| 20260504031526 | 46 | 172 | 0.0 | 0.0 | 0.00 | 0.00 | 0.00 | 88 | 1020.4 |
| 20260504031022 | 47 | 172 | 0.0 | 0.0 | 0.00 | 0.00 | 0.00 | 87 | 1020.6 |
| 20260504030520 | 47 | 171 | 0.0 | 0.0 | 0.00 | 0.00 | 0.00 | 87 | 1020.5 |
| 20260504030016 | 47 | 168 | 0.0 | 0.0 | 0.00 | 0.00 | 0.00 | 86 | 1020.5 |
| 20260504025513 | 48 | 168 | 0.0 | 0.0 | 0.00 | 0.00 | 0.00 | 85 | 1020.4 |
| 20260504025010 | 48 | 169 | 0.0 | 0.0 | 0.00 | 0.00 | 0.00 | 85 | 1020.5 |
| 20260504024507 | 48 | 153 | 0.0 | 0.0 | 0.00 | 0.00 | 0.00 | 84 | 1020.5 |
| 20260504024004 | 49 | 167 | 0.0 | 0.0 | 0.00 | 0.00 | 0.00 | 83 | 1020.3 |
| 20260504023500 | 49 | 161 | 0.0 | 0.0 | 0.00 | 0.00 | 0.00 | 84 | 1020.4 |
| 20260504022956 | 49 | 172 | 0.0 | 0.0 | 0.00 | 0.00 | 0.00 | 84 | 1020.4 |
| 20260504022452 | 49 | 166 | 0.0 | 0.0 | 0.00 | 0.00 | 0.00 | 83 | 1020.2 |
| 20260504021949 | 50 | 141 | 0.0 | 0.0 | 0.00 | 0.00 | 0.00 | 82 | 1020.2 |
| 20260504021446 | 49 | 146 | 1.0 | 1.0 | 0.00 | 0.00 | 0.00 | 84 | 1020.1 |
| 20260504020943 | 48 | 171 | 0.0 | 0.0 | 0.00 | 0.00 | 0.00 | 84 | 1020.1 |
| 20260504020440 | 49 | 171 | 0.0 | 0.0 | 0.00 | 0.00 | 0.00 | 83 | 1020.1 |
| 20260504015937 | 49 | 171 | 0.0 | 0.0 | 0.00 | 0.00 | 0.00 | 82 | 1020.1 |
| 20260504015433 | 50 | 171 | 0.0 | 0.0 | 0.00 | 0.00 | 0.00 | 80 | 1020.1 |
| 20260504014929 | 50 | 171 | 0.0 | 0.0 | 0.00 | 0.00 | 0.00 | 79 | 1020.2 |
| 20260504014425 | 51 | 171 | 0.0 | 0.0 | 0.00 | 0.00 | 0.00 | 79 | 1020.1 |
| 20260504013922 | 51 | 175 | 0.0 | 0.0 | 0.00 | 0.00 | 0.00 | 78 | 1020.0 |
| 20260504013421 | 51 | 167 | 0.0 | 0.0 | 0.00 | 0.00 | 0.00 | 79 | 1020.1 |
| 20260504012916 | 50 | 178 | 0.0 | 0.0 | 0.00 | 0.00 | 0.00 | 79 | 1020.0 |
| 20260504012414 | 51 | 178 | 0.0 | 0.0 | 0.00 | 0.00 | 0.00 | 77 | 1019.9 |
| 20260504011911 | 52 | 178 | 0.0 | 0.0 | 0.00 | 0.00 | 0.00 | 76 | 1019.9 |
| 20260504011408 | 53 | 178 | 0.0 | 0.0 | 0.00 | 0.00 | 0.00 | 75 | 1019.8 |
| 20260504010904 | 53 | 178 | 0.0 | 0.0 | 0.00 | 0.00 | 0.00 | 73 | 1019.8 |
| 20260504010400 | 53 | 178 | 0.0 | 0.0 | 0.00 | 0.00 | 0.00 | 72 | 1019.7 |
| 20260504005856 | 54 | 178 | 0.0 | 0.0 | 0.00 | 0.00 | 0.00 | 71 | 1020.0 |
| 20260504005353 | 55 | 178 | 0.0 | 0.0 | 0.00 | 0.00 | 0.00 | 70 | 1019.8 |
| 20260504004851 | 55 | 178 | 0.0 | 0.0 | 0.00 | 0.00 | 0.00 | 70 | 1019.6 |
| 20260504004348 | 55 | 177 | 0.0 | 0.0 | 0.00 | 0.00 | 0.00 | 69 | 1019.7 |
| 20260504003845 | 56 | 177 | 0.0 | 0.0 | 0.00 | 0.00 | 0.00 | 67 | 1019.4 |
| 20260504003342 | 57 | 177 | 0.0 | 0.0 | 0.00 | 0.00 | 0.00 | 66 | 1019.6 |
| 20260504002838 | 58 | 177 | 0.0 | 0.0 | 0.00 | 0.00 | 0.00 | 65 | 1019.5 |
| 20260504002335 | 59 | 177 | 0.0 | 0.0 | 0.00 | 0.00 | 0.00 | 64 | 1019.4 |
| 20260504001833 | 60 | 176 | 0.0 | 0.0 | 0.00 | 0.00 | 0.00 | 61 | 1019.6 |
| 20260504001330 | 60 | 175 | 0.0 | 0.0 | 0.00 | 0.00 | 0.00 | 60 | 1019.6 |
| 20260504000827 | 62 | 170 | 0.0 | 0.0 | 0.00 | 0.00 | 0.00 | 54 | 1019.7 |
| 20260504000324 | 63 | 180 | 0.0 | 0.0 | 0.00 | 0.00 | 0.00 | 54 | 1019.8 |
| 20260503235821 | 64 | 172 | 0.0 | 0.0 | 0.00 | 0.00 | 0.00 | 48 | 1019.7 |
| 20260503235319 | 66 | 173 | 0.0 | 0.0 | 0.00 | 0.00 | 0.00 | 46 | 1019.7 |
| 20260503234816 | 66 | 188 | 1.0 | 1.0 | 0.00 | 0.00 | 0.00 | 44 | 1019.7 |
| 20260503234314 | 66 | 201 | 1.0 | 2.0 | 0.00 | 0.00 | 0.00 | 43 | 1019.6 |
| 20260503233811 | 67 | 193 | 2.0 | 2.0 | 0.00 | 0.00 | 0.00 | 41 | 1019.6 |
| 20260503233307 | 68 | 179 | 0.0 | 1.0 | 0.00 | 0.00 | 0.00 | 41 | 1019.7 |
| 20260503232804 | 68 | 187 | 0.0 | 1.0 | 0.00 | 0.00 | 0.00 | 42 | 1020.0 |
| 20260503232301 | 68 | 170 | 0.0 | 0.0 | 0.00 | 0.00 | 0.00 | 42 | 1020.1 |
| 20260503231759 | 68 | 238 | 2.0 | 3.0 | 0.00 | 0.00 | 0.00 | 43 | 1020.0 |
| 20260503231256 | 68 | 253 | 3.0 | 3.0 | 0.00 | 0.00 | 0.00 | 40 | 1020.2 |
| 20260503230756 | 69 | 210 | 3.0 | 3.0 | 0.00 | 0.00 | 0.00 | 40 | 1020.1 |
| 20260503230254 | 69 | 178 | 0.0 | 0.0 | 0.00 | 0.00 | 0.00 | 41 | 1020.3 |
| 20260503225752 | 68 | 236 | 3.0 | 4.0 | 0.00 | 0.00 | 0.00 | 40 | 1020.2 |
| 20260503225252 | 68 | 183 | 2.0 | 2.0 | 0.00 | 0.00 | 0.00 | 39 | 1020.4 |
| 20260503224748 | 68 | 24 | 3.0 | 6.0 | 0.00 | 0.00 | 0.00 | 41 | 1020.4 |
| 20260503224246 | 68 | 227 | 2.0 | 3.0 | 0.00 | 0.00 | 0.00 | 40 | 1020.4 |
| 20260503223744 | 68 | 231 | 3.0 | 4.0 | 0.00 | 0.00 | 0.00 | 40 | 1020.5 |
| 20260503223241 | 68 | 204 | 3.0 | 4.0 | 0.00 | 0.00 | 0.00 | 41 | 1020.5 |
| 20260503222737 | 69 | 240 | 4.0 | 4.0 | 0.00 | 0.00 | 0.00 | 39 | 1020.4 |
| 20260503222235 | 69 | 203 | 1.0 | 3.0 | 0.00 | 0.00 | 0.00 | 43 | 1020.5 |
| 20260503221733 | 70 | 189 | 1.0 | 2.0 | 0.00 | 0.00 | 0.00 | 39 | 1020.6 |
| 20260503221231 | 69 | 178 | 1.0 | 1.0 | 0.00 | 0.00 | 0.00 | 43 | 1020.6 |
| 20260503220727 | 70 | 192 | 3.0 | 3.0 | 0.00 | 0.00 | 0.00 | 39 | 1020.5 |
| 20260503220224 | 69 | 149 | 2.0 | 2.0 | 0.00 | 0.00 | 0.00 | 39 | 1020.4 |
| 20260503215721 | 70 | 252 | 2.0 | 3.0 | 0.00 | 0.00 | 0.00 | 42 | 1020.4 |
| 20260503215218 | 71 | 186 | 3.0 | 3.0 | 0.00 | 0.00 | 0.00 | 41 | 1020.4 |
| 20260503214716 | 70 | 214 | 4.0 | 4.0 | 0.00 | 0.00 | 0.00 | 38 | 1020.6 |
| 20260503214212 | 70 | 166 | 1.0 | 1.0 | 0.00 | 0.00 | 0.00 | 42 | 1020.6 |
| 20260503213711 | 69 | 170 | 2.0 | 3.0 | 0.00 | 0.00 | 0.00 | 48 | 1020.8 |
| 20260503213208 | 69 | 187 | 2.0 | 3.0 | 0.00 | 0.00 | 0.00 | 40 | 1020.7 |
| 20260503212705 | 69 | 266 | 4.0 | 6.0 | 0.00 | 0.00 | 0.00 | 42 | 1020.8 |
| 20260503212203 | 68 | 211 | 2.0 | 2.0 | 0.00 | 0.00 | 0.00 | 40 | 1020.9 |
| 20260503211700 | 70 | 186 | 3.0 | 3.0 | 0.00 | 0.00 | 0.00 | 40 | 1020.9 |
| 20260503211155 | 69 | 46 | 1.0 | 2.0 | 0.00 | 0.00 | 0.00 | 38 | 1021.1 |
| 20260503210651 | 68 | 181 | 1.0 | 2.0 | 0.00 | 0.00 | 0.00 | 41 | 1021.1 |
| 20260503210148 | 69 | 251 | 5.0 | 7.0 | 0.00 | 0.00 | 0.00 | 39 | 1021.1 |
| 20260503205644 | 68 | 172 | 0.0 | 0.0 | 0.00 | 0.00 | 0.00 | 41 | 1021.2 |
| 20260503205140 | 68 | 206 | 2.0 | 2.0 | 0.00 | 0.00 | 0.00 | 45 | 1021.1 |
| 20260503204637 | 68 | 218 | 3.0 | 4.0 | 0.00 | 0.00 | 0.00 | 38 | 1021.4 |
| 20260503204135 | 68 | 269 | 2.0 | 3.0 | 0.00 | 0.00 | 0.00 | 37 | 1021.6 |
| 20260503203631 | 68 | 256 | 0.0 | 0.0 | 0.00 | 0.00 | 0.00 | 43 | 1021.6 |
| 20260503203129 | 68 | 253 | 4.0 | 4.0 | 0.00 | 0.00 | 0.00 | 38 | 1021.9 |
| 20260503202626 | 67 | 177 | 2.0 | 3.0 | 0.00 | 0.00 | 0.00 | 39 | 1021.8 |
| 20260503202124 | 69 | 259 | 6.0 | 8.0 | 0.00 | 0.00 | 0.00 | 40 | 1021.8 |
| 20260503201622 | 68 | 214 | 0.0 | 1.0 | 0.00 | 0.00 | 0.00 | 42 | 1022.1 |
| 20260503201119 | 69 | 180 | 2.0 | 3.0 | 0.00 | 0.00 | 0.00 | 45 | 1022.2 |
| 20260503200615 | 68 | 216 | 3.0 | 3.0 | 0.00 | 0.00 | 0.00 | 38 | 1022.3 |
| 20260503200112 | 68 | 198 | 2.0 | 2.0 | 0.00 | 0.00 | 0.00 | 41 | 1022.3 |
| 20260503195609 | 68 | 192 | 1.0 | 1.0 | 0.00 | 0.00 | 0.00 | 44 | 1022.4 |
| 20260503195106 | 68 | 213 | 5.0 | 7.0 | 0.00 | 0.00 | 0.00 | 40 | 1022.6 |
| 20260503194603 | 67 | 187 | 1.0 | 1.0 | 0.00 | 0.00 | 0.00 | 41 | 1022.7 |
| 20260503194058 | 67 | 195 | 2.0 | 3.0 | 0.00 | 0.00 | 0.00 | 39 | 1022.7 |
| 20260503193555 | 67 | 212 | 5.0 | 6.0 | 0.00 | 0.00 | 0.00 | 38 | 1022.8 |
| 20260503193050 | 66 | 180 | 3.0 | 3.0 | 0.00 | 0.00 | 0.00 | 39 | 1023.1 |
| 20260503192546 | 67 | 146 | 3.0 | 3.0 | 0.00 | 0.00 | 0.00 | 44 | 1022.9 |
| 20260503192042 | 66 | 218 | 2.0 | 3.0 | 0.00 | 0.00 | 0.00 | 40 | 1022.9 |
| 20260503191539 | 66 | 206 | 5.0 | 7.0 | 0.00 | 0.00 | 0.00 | 41 | 1022.9 |
| 20260503191036 | 67 | 224 | 6.0 | 8.0 | 0.00 | 0.00 | 0.00 | 41 | 1023.2 |
| 20260503190533 | 66 | 200 | 3.0 | 3.0 | 0.00 | 0.00 | 0.00 | 41 | 1023.2 |
| 20260503190030 | 66 | 175 | 0.0 | 1.0 | 0.00 | 0.00 | 0.00 | 42 | 1023.1 |
| 20260503185527 | 65 | 185 | 2.0 | 4.0 | 0.00 | 0.00 | 0.00 | 41 | 1023.1 |
| 20260503185026 | 67 | 219 | 3.0 | 4.0 | 0.00 | 0.00 | 0.00 | 37 | 1023.2 |
| 20260503184523 | 67 | 179 | 1.0 | 1.0 | 0.00 | 0.00 | 0.00 | 47 | 1023.3 |
| 20260503184019 | 65 | 188 | 1.0 | 1.0 | 0.00 | 0.00 | 0.00 | 42 | 1023.4 |
| 20260503183516 | 64 | 301 | 6.0 | 8.0 | 0.00 | 0.00 | 0.00 | 42 | 1023.5 |
| 20260503183013 | 64 | 215 | 2.0 | 2.0 | 0.00 | 0.00 | 0.00 | 42 | 1023.5 |
| 20260503182512 | 65 | 258 | 3.0 | 6.0 | 0.00 | 0.00 | 0.00 | 44 | 1023.6 |
| 20260503182009 | 65 | 258 | 5.0 | 8.0 | 0.00 | 0.00 | 0.00 | 45 | 1023.5 |
| 20260503181506 | 65 | 221 | 3.0 | 4.0 | 0.00 | 0.00 | 0.00 | 48 | 1023.7 |
| 20260503181002 | 65 | 224 | 3.0 | 3.0 | 0.00 | 0.00 | 0.00 | 43 | 1023.8 |
| 20260503180500 | 64 | 213 | 1.0 | 1.0 | 0.00 | 0.00 | 0.00 | 47 | 1023.7 |
| 20260503175956 | 64 | 5 | 4.0 | 4.0 | 0.00 | 0.00 | 0.00 | 41 | 1023.9 |
| 20260503175455 | 65 | 214 | 5.0 | 6.0 | 0.00 | 0.00 | 0.00 | 44 | 1024.1 |
| 20260503174950 | 64 | 232 | 0.0 | 0.0 | 0.00 | 0.00 | 0.00 | 46 | 1024.1 |
| 20260503174449 | 63 | 189 | 1.0 | 2.0 | 0.00 | 0.00 | 0.00 | 52 | 1024.1 |
| 20260503173943 | 64 | 278 | 4.0 | 7.0 | 0.00 | 0.00 | 0.00 | 45 | 1024.0 |
| 20260503173439 | 63 | 183 | 1.0 | 1.0 | 0.00 | 0.00 | 0.00 | 49 | 1024.2 |
| 20260503172936 | 63 | 204 | 3.0 | 6.0 | 0.00 | 0.00 | 0.00 | 42 | 1024.3 |
| 20260503172434 | 65 | 177 | 3.0 | 4.0 | 0.00 | 0.00 | 0.00 | 44 | 1024.2 |
| 20260503171930 | 62 | 187 | 1.0 | 2.0 | 0.00 | 0.00 | 0.00 | 41 | 1024.4 |
| 20260503171427 | 64 | 180 | 2.0 | 3.0 | 0.00 | 0.00 | 0.00 | 45 | 1024.3 |
| 20260503170924 | 64 | 180 | 1.0 | 1.0 | 0.00 | 0.00 | 0.00 | 41 | 1024.5 |
| 20260503170420 | 63 | 196 | 0.0 | 1.0 | 0.00 | 0.00 | 0.00 | 40 | 1024.6 |
| 20260503150813 | 59 | 6 | 3.0 | 3.0 | 0.00 | 0.00 | 0.00 | 46 | 1025.4 |
| 20260503150309 | 59 | 182 | 1.0 | 1.0 | 0.00 | 0.00 | 0.00 | 52 | 1025.4 |
| 20260503140233 | 56 | 171 | 0.0 | 0.0 | 0.00 | 0.00 | 0.00 | 75 | 1025.2 |
| 20260503131203 | 50 | 166 | 0.0 | 0.0 | 0.00 | 0.00 | 0.00 | 89 | 1025.2 |
| 20260503130700 | 49 | 157 | 0.0 | 0.0 | 0.00 | 0.00 | 0.00 | 87 | 1025.3 |
| 20260503130158 | 48 | 171 | 0.0 | 0.0 | 0.00 | 0.00 | 0.00 | 91 | 1025.2 |
| 20260503120123 | 39 | 166 | 0.0 | 0.0 | 0.00 | 0.00 | 0.00 | 99 | 1024.8 |
| 20260503110550 | 36 | 164 | 0.0 | 0.0 | 0.00 | 0.00 | 0.00 | 99 | 1024.2 |
| 20260503090437 | 37 | 176 | 0.0 | 0.0 | 0.00 | 0.00 | 0.00 | 99 | 1023.6 |
| 20260503081404 | 39 | 179 | 0.0 | 0.0 | 0.00 | 0.00 | 0.00 | 99 | 1023.5 |
| 20260503080901 | 38 | 179 | 0.0 | 0.0 | 0.00 | 0.00 | 0.00 | 99 | 1023.4 |
| 20260503080358 | 38 | 179 | 0.0 | 0.0 | 0.00 | 0.00 | 0.00 | 99 | 1023.4 |
| 20260503072834 | 39 | 182 | 0.0 | 0.0 | 0.00 | 0.00 | 0.00 | 99 | 1023.1 |
| 20260503072331 | 40 | 170 | 0.0 | 0.0 | 0.00 | 0.00 | 0.00 | 98 | 1023.1 |